createdAt,value
2019-03-04T00:00:36.811Z,64.81
2019-03-04T00:03:07.931Z,65.01
2019-03-04T00:05:39.123Z,65.33
2019-03-04T00:08:11.401Z,65.49
2019-03-04T00:10:42.458Z,65.53
2019-03-04T00:13:13.553Z,65.67
2019-03-04T00:15:44.649Z,65.78
2019-03-04T00:18:15.904Z,65.91
2019-03-04T00:20:46.934Z,65.95
2019-03-04T00:23:18.026Z,66.18
2019-03-04T00:25:49.055Z,66.22
2019-03-04T00:28:20.112Z,66.52
2019-03-04T00:30:51.226Z,66.66
2019-03-04T00:33:22.304Z,66.50
2019-03-04T00:35:53.367Z,66.75
2019-03-04T00:38:24.479Z,67.11
2019-03-04T00:40:55.472Z,67.19
2019-03-04T00:43:26.511Z,67.23
2019-03-04T00:45:57.570Z,67.27
2019-03-04T00:48:29.675Z,67.38
2019-03-04T00:51:00.741Z,67.53
2019-03-04T00:53:31.868Z,67.68
2019-03-04T00:56:02.966Z,67.84
2019-03-04T00:58:34.134Z,67.77
2019-03-04T01:01:05.154Z,67.95
2019-03-04T01:03:36.238Z,68.00
2019-03-04T01:06:07.459Z,68.01
2019-03-04T01:08:38.690Z,68.03
2019-03-04T01:11:09.895Z,68.10
2019-03-04T01:13:41.908Z,68.48
2019-03-04T01:16:12.916Z,68.72
2019-03-04T01:18:44.014Z,68.93
2019-03-04T01:21:15.001Z,68.99
2019-03-04T01:23:46.098Z,69.21
2019-03-04T01:26:17.213Z,69.23
2019-03-04T01:28:48.246Z,69.47
2019-03-04T01:31:19.285Z,69.71
2019-03-04T01:33:50.324Z,70.00
2019-03-04T01:36:21.378Z,70.10
2019-03-04T01:38:52.412Z,70.36
2019-03-04T01:41:23.447Z,70.47
2019-03-04T01:43:54.864Z,70.54
2019-03-04T01:46:25.876Z,70.74
2019-03-04T01:48:56.980Z,70.87
2019-03-04T01:51:28.370Z,70.97
2019-03-04T01:53:59.481Z,71.33
2019-03-04T01:56:30.520Z,71.44
2019-03-04T01:59:01.552Z,71.71
2019-03-04T02:01:32.541Z,71.93
2019-03-04T02:04:03.528Z,72.00
2019-03-04T02:06:34.653Z,71.98
2019-03-04T02:09:07.107Z,72.19
2019-03-04T02:11:39.537Z,72.43
2019-03-04T02:14:10.681Z,72.62
2019-03-04T02:16:42.759Z,72.65
2019-03-04T02:19:15.174Z,72.69
2019-03-04T02:21:46.259Z,72.85
2019-03-04T02:24:22.668Z,72.74
2019-03-04T02:26:54.732Z,72.71
2019-03-04T02:29:26.663Z,72.93
2019-03-04T02:31:57.700Z,73.06
2019-03-04T02:34:28.743Z,73.03
2019-03-04T02:36:59.889Z,72.92
2019-03-04T02:39:30.956Z,73.08
2019-03-04T02:42:02.349Z,73.00
2019-03-04T02:44:33.315Z,73.18
2019-03-04T02:47:04.459Z,73.22
2019-03-04T02:49:35.507Z,73.28
2019-03-04T02:52:06.891Z,73.21
2019-03-04T02:54:37.894Z,73.20
2019-03-04T02:57:08.982Z,73.15
2019-03-04T02:59:40.079Z,73.07
2019-03-04T03:02:11.227Z,72.87
2019-03-04T03:04:42.439Z,72.85
2019-03-04T03:07:13.471Z,72.62
2019-03-04T03:09:44.510Z,72.67
2019-03-04T03:12:15.566Z,72.58
2019-03-04T03:14:46.630Z,72.62
2019-03-04T03:17:17.818Z,72.84
2019-03-04T03:19:48.914Z,73.05
2019-03-04T03:22:19.935Z,73.30
2019-03-04T03:24:51.003Z,73.41
2019-03-04T03:27:22.087Z,73.61
2019-03-04T03:29:53.475Z,73.71
2019-03-04T03:32:24.681Z,73.91
2019-03-04T03:34:55.787Z,74.09
2019-03-04T03:37:26.871Z,74.15
2019-03-04T03:39:57.879Z,74.22
2019-03-04T03:42:28.891Z,74.05
2019-03-04T03:45:00.365Z,74.30
2019-03-04T03:47:31.386Z,74.06
2019-03-04T03:50:02.456Z,74.03
2019-03-04T03:52:33.479Z,74.24
2019-03-04T03:55:07.533Z,74.38
2019-03-04T03:57:38.549Z,74.48
2019-03-04T04:00:20.440Z,74.48
2019-03-04T04:02:51.537Z,74.51
2019-03-04T04:05:22.607Z,74.47
2019-03-04T04:07:53.666Z,74.41
2019-03-04T04:10:24.810Z,74.32
2019-03-04T04:12:55.858Z,74.34
2019-03-04T04:15:26.995Z,74.39
2019-03-04T04:17:58.036Z,74.59
2019-03-04T04:20:29.068Z,74.61
2019-03-04T04:23:00.067Z,74.73
2019-03-04T04:25:31.438Z,74.81
2019-03-04T04:28:04.147Z,75.06
2019-03-04T04:30:36.403Z,74.98
2019-03-04T04:33:07.460Z,75.19
2019-03-04T04:35:38.445Z,75.00
2019-03-04T04:38:09.553Z,75.00
2019-03-04T04:40:40.568Z,75.08
2019-03-04T04:43:11.697Z,75.16
2019-03-04T04:45:42.842Z,75.29
2019-03-04T04:48:13.848Z,75.16
2019-03-04T04:50:45.015Z,75.32
2019-03-04T04:53:16.160Z,75.42
2019-03-04T04:55:47.242Z,75.58
2019-03-04T04:58:18.326Z,75.24
2019-03-04T05:00:49.417Z,75.50
2019-03-04T05:03:20.505Z,75.41
2019-03-04T05:05:51.619Z,75.37
2019-03-04T05:08:22.690Z,75.36
2019-03-04T05:10:53.884Z,75.04
2019-03-04T05:13:24.933Z,75.20
2019-03-04T05:15:55.983Z,75.06
2019-03-04T05:18:27.133Z,75.16
2019-03-04T05:20:58.167Z,74.46
2019-03-04T05:23:29.202Z,74.40
2019-03-04T05:26:00.239Z,74.45
2019-03-04T05:28:31.284Z,74.38
2019-03-04T05:31:02.322Z,73.94
2019-03-04T05:33:33.412Z,73.22
2019-03-04T05:36:04.585Z,72.92
2019-03-04T05:38:35.677Z,72.86
2019-03-04T05:41:06.871Z,72.69
2019-03-04T05:43:38.060Z,72.39
2019-03-04T05:46:09.100Z,71.43
2019-03-04T05:48:40.178Z,71.06
2019-03-04T05:51:11.280Z,70.36
2019-03-04T05:53:42.425Z,70.93
2019-03-04T05:56:13.406Z,71.24
2019-03-04T05:58:44.497Z,71.61
2019-03-04T06:01:27.535Z,72.05
2019-03-04T06:04:01.721Z,71.66
2019-03-04T06:06:49.598Z,71.18
2019-03-04T06:09:20.717Z,71.76
2019-03-04T06:11:51.763Z,71.40
2019-03-04T06:14:22.826Z,71.27
2019-03-04T06:16:54.038Z,70.74
2019-03-04T06:19:25.124Z,71.24
2019-03-04T06:21:56.281Z,70.92
2019-03-04T06:24:27.387Z,70.82
2019-03-04T06:26:58.417Z,70.44
2019-03-04T06:29:29.459Z,70.53
2019-03-04T06:32:00.640Z,69.93
2019-03-04T06:34:31.762Z,69.14
2019-03-04T06:37:02.862Z,69.94
2019-03-04T06:39:34.045Z,70.56
2019-03-04T06:42:05.190Z,70.85
2019-03-04T06:44:37.562Z,70.56
2019-03-04T06:47:09.736Z,70.56
2019-03-04T06:49:40.776Z,70.61
2019-03-04T06:52:11.928Z,70.18
2019-03-04T06:54:52.138Z,69.53
2019-03-04T06:57:28.382Z,69.02
2019-03-04T07:00:21.576Z,67.91
2019-03-04T07:02:52.627Z,66.26
2019-03-04T07:05:45.990Z,65.09
2019-03-04T07:08:35.466Z,65.14
2019-03-04T07:11:06.525Z,65.53
2019-03-04T07:13:37.704Z,64.01
2019-03-04T07:16:08.675Z,64.33
2019-03-04T07:18:39.914Z,64.78
2019-03-04T07:21:12.819Z,65.24
2019-03-04T07:23:43.921Z,65.43
2019-03-04T07:26:15.299Z,65.34
2019-03-04T07:28:46.501Z,64.39
2019-03-04T07:31:17.712Z,64.47
2019-03-04T07:33:48.923Z,63.99
2019-03-04T07:36:19.914Z,63.84
2019-03-04T07:38:58.152Z,63.87
2019-03-04T07:41:29.353Z,63.99
2019-03-04T07:44:00.628Z,63.67
2019-03-04T07:46:31.701Z,62.75
2019-03-04T07:49:02.995Z,62.84
2019-03-04T07:51:34.424Z,63.16
2019-03-04T07:54:05.552Z,63.11
2019-03-04T07:56:37.081Z,63.05
2019-03-04T07:59:08.328Z,63.14
2019-03-04T08:01:39.634Z,63.22
2019-03-04T08:04:10.858Z,61.88
2019-03-04T08:06:42.150Z,61.18
2019-03-04T08:09:16.718Z,60.53
2019-03-04T08:12:10.640Z,60.06
2019-03-04T08:14:42.019Z,60.06
2019-03-04T08:17:13.246Z,59.94
2019-03-04T08:19:44.218Z,59.90
2019-03-04T08:22:15.831Z,60.22
2019-03-04T08:24:46.902Z,60.27
2019-03-04T08:27:18.522Z,60.31
2019-03-04T08:29:49.739Z,60.39
2019-03-04T08:32:21.017Z,60.00
2019-03-04T08:34:52.222Z,59.27
2019-03-04T08:37:23.413Z,58.82
2019-03-04T08:39:54.612Z,58.14
2019-03-04T08:42:26.018Z,57.77
2019-03-04T08:44:57.025Z,57.62
2019-03-04T08:47:28.121Z,57.67
2019-03-04T08:49:59.165Z,57.51
2019-03-04T08:52:30.379Z,56.78
2019-03-04T08:55:01.686Z,56.99
2019-03-04T08:57:33.345Z,56.87
2019-03-04T09:00:10.685Z,56.30
2019-03-04T09:02:42.103Z,56.42
2019-03-04T09:05:13.240Z,55.72
2019-03-04T09:07:44.442Z,55.46
2019-03-04T09:10:18.356Z,55.36
2019-03-04T09:12:49.448Z,55.11
2019-03-04T09:15:20.565Z,55.11
2019-03-04T09:17:51.866Z,53.42
2019-03-04T09:20:23.084Z,53.42
2019-03-04T09:22:56.491Z,53.87
2019-03-04T09:25:47.804Z,54.28
2019-03-04T09:28:19.486Z,54.64
2019-03-04T09:30:50.623Z,54.69
2019-03-04T09:33:21.657Z,54.69
2019-03-04T09:35:52.987Z,54.31
2019-03-04T09:38:24.245Z,54.06
2019-03-04T09:40:57.232Z,54.21
2019-03-04T09:43:28.444Z,54.01
2019-03-04T09:46:00.259Z,53.98
2019-03-04T09:48:31.385Z,53.98
2019-03-04T09:51:02.778Z,54.28
2019-03-04T09:53:39.384Z,54.50
2019-03-04T09:56:06.720Z,54.30
2019-03-04T09:58:42.568Z,53.63
2019-03-04T10:01:21.591Z,52.85
2019-03-04T10:04:21.454Z,53.09
2019-03-04T10:07:01.817Z,53.09
2019-03-04T10:09:42.744Z,53.07
2019-03-04T10:12:22.630Z,53.26
2019-03-04T10:15:27.173Z,53.42
2019-03-04T10:18:18.429Z,53.72
2019-03-04T10:20:55.426Z,54.08
2019-03-04T10:23:50.848Z,54.88
2019-03-04T10:26:40.982Z,54.88
2019-03-04T10:29:15.370Z,54.83
2019-03-04T10:31:58.672Z,54.67
2019-03-04T10:34:54.816Z,54.97
2019-03-04T10:37:57.577Z,54.96
2019-03-04T10:40:48.114Z,54.31
2019-03-04T10:43:48.234Z,54.23
2019-03-04T10:46:40.955Z,54.16
2019-03-04T10:49:11.988Z,53.62
2019-03-04T10:51:43.088Z,53.06
2019-03-04T10:54:14.260Z,52.65
2019-03-04T10:56:45.332Z,52.43
2019-03-04T10:59:16.420Z,52.12
2019-03-04T11:01:49.917Z,52.29
2019-03-04T11:04:20.211Z,52.35
2019-03-04T11:06:51.245Z,52.38
2019-03-04T11:09:22.197Z,52.42
2019-03-04T11:11:53.126Z,52.42
2019-03-04T11:14:24.195Z,52.37
2019-03-04T11:16:55.127Z,52.37
2019-03-04T11:19:26.219Z,52.46
2019-03-04T11:21:57.277Z,52.27
2019-03-04T11:24:28.303Z,52.62
2019-03-04T11:27:00.506Z,52.08
2019-03-04T11:29:31.788Z,51.63
2019-03-04T11:32:03.743Z,51.60
2019-03-04T11:34:34.866Z,51.30
2019-03-04T11:37:05.825Z,51.32
2019-03-04T11:39:47.311Z,51.37
2019-03-04T11:42:18.358Z,51.48
2019-03-04T11:44:49.393Z,51.29
2019-03-04T11:47:22.218Z,51.29
2019-03-04T11:49:53.523Z,51.22
2019-03-04T11:52:24.634Z,51.00
2019-03-04T11:54:56.081Z,50.78
2019-03-04T11:57:27.128Z,50.43
2019-03-04T11:59:58.355Z,50.58
2019-03-04T12:02:38.552Z,50.40
2019-03-04T12:05:02.644Z,50.49
2019-03-04T12:07:33.733Z,50.41
2019-03-04T12:10:07.998Z,50.49
2019-03-04T12:12:39.276Z,50.53
2019-03-04T12:15:13.777Z,50.20
2019-03-04T12:17:44.989Z,50.20
2019-03-04T12:20:16.492Z,50.11
2019-03-04T12:22:47.622Z,50.04
2019-03-04T12:25:20.569Z,50.19
2019-03-04T12:27:51.488Z,50.80
2019-03-04T12:30:24.008Z,51.15
2019-03-04T12:32:55.104Z,51.36
2019-03-04T12:35:26.102Z,51.41
2019-03-04T12:37:57.086Z,51.96
2019-03-04T12:40:28.023Z,52.08
2019-03-04T12:42:59.208Z,52.21
2019-03-04T12:45:34.446Z,52.23
2019-03-04T12:48:03.161Z,52.15
2019-03-04T12:50:35.666Z,52.15
2019-03-04T12:53:06.691Z,52.63
2019-03-04T12:55:37.710Z,52.96
2019-03-04T12:58:08.853Z,52.96
2019-03-04T13:00:40.141Z,52.55
2019-03-04T13:03:17.125Z,52.19
2019-03-04T13:05:48.006Z,52.11
2019-03-04T13:08:18.870Z,52.21
2019-03-04T13:10:50.009Z,52.63
2019-03-04T13:13:21.108Z,53.80
2019-03-04T13:15:52.144Z,53.80
2019-03-04T13:18:23.094Z,54.97
2019-03-04T13:20:54.120Z,56.21
2019-03-04T13:23:25.169Z,56.21
2019-03-04T13:25:56.238Z,58.30
2019-03-04T13:28:27.234Z,58.30
2019-03-04T13:30:58.300Z,58.82
2019-03-04T13:33:29.311Z,59.57
2019-03-04T13:36:00.325Z,60.04
2019-03-04T13:38:31.395Z,61.20
2019-03-04T13:41:02.289Z,61.41
2019-03-04T13:43:33.283Z,61.85
2019-03-04T13:46:04.433Z,62.85
2019-03-04T13:48:35.461Z,62.85
2019-03-04T13:51:06.338Z,63.66
2019-03-04T13:53:37.406Z,63.34
2019-03-04T13:56:08.343Z,63.71
2019-03-04T13:58:39.513Z,63.24
2019-03-04T14:01:10.551Z,63.01
2019-03-04T14:03:41.504Z,63.38
2019-03-04T14:06:12.496Z,62.89
2019-03-04T14:08:43.589Z,63.02
2019-03-04T14:11:14.572Z,63.04
2019-03-04T14:13:45.490Z,62.73
2019-03-04T14:16:16.429Z,62.13
2019-03-04T14:18:47.418Z,62.20
2019-03-04T14:21:18.511Z,61.52
2019-03-04T14:23:49.469Z,61.68
2019-03-04T14:26:20.672Z,60.91
2019-03-04T14:28:51.990Z,60.91
2019-03-04T14:31:22.986Z,60.36
2019-03-04T14:33:54.003Z,60.36
2019-03-04T14:36:24.941Z,60.02
2019-03-04T14:38:55.951Z,60.02
2019-03-04T14:41:27.049Z,60.45
2019-03-04T14:43:58.110Z,60.35
2019-03-04T14:46:28.985Z,60.71
2019-03-04T14:49:00.931Z,60.97
2019-03-04T14:51:32.097Z,60.98
2019-03-04T14:54:03.428Z,61.17
2019-03-04T14:56:34.434Z,61.50
2019-03-04T14:59:10.955Z,62.11
2019-03-04T15:01:39.484Z,61.97
2019-03-04T15:04:10.875Z,62.36
2019-03-04T15:06:42.277Z,62.61
2019-03-04T15:09:13.829Z,62.61
2019-03-04T15:11:44.920Z,62.56
2019-03-04T15:14:15.857Z,63.05
2019-03-04T15:16:46.858Z,63.19
2019-03-04T15:19:17.873Z,63.19
2019-03-04T15:21:49.274Z,62.99
2019-03-04T15:24:21.469Z,62.99
2019-03-04T15:26:52.485Z,62.93
2019-03-04T15:29:23.946Z,62.85
2019-03-04T15:31:54.887Z,62.48
2019-03-04T15:34:28.448Z,62.48
2019-03-04T15:36:58.777Z,62.50
2019-03-04T15:39:30.063Z,62.64
2019-03-04T15:42:01.124Z,62.12
2019-03-04T15:44:32.092Z,61.98
2019-03-04T15:47:03.053Z,61.58
2019-03-04T15:49:34.057Z,61.91
2019-03-04T15:52:06.787Z,61.31
2019-03-04T15:54:37.981Z,61.38
2019-03-04T15:57:11.307Z,61.22
2019-03-04T15:59:41.920Z,61.62
2019-03-04T16:02:13.101Z,61.65
2019-03-04T16:04:44.285Z,61.74
2019-03-04T16:07:15.865Z,61.74
2019-03-04T16:09:47.432Z,61.88
2019-03-04T16:12:20.056Z,62.17
2019-03-04T16:14:51.129Z,62.17
2019-03-04T16:17:22.211Z,62.71
2019-03-04T16:19:53.317Z,62.59
2019-03-04T16:22:24.343Z,62.21
2019-03-04T16:24:55.404Z,62.21
2019-03-04T16:27:26.538Z,62.39
2019-03-04T16:29:57.710Z,62.69
2019-03-04T16:32:28.857Z,61.91
2019-03-04T16:34:59.815Z,61.61
2019-03-04T16:37:31.082Z,61.62
2019-03-04T16:40:02.166Z,61.75
2019-03-04T16:42:33.304Z,61.69
2019-03-04T16:45:07.110Z,61.54
2019-03-04T16:47:38.129Z,61.76
2019-03-04T16:50:17.259Z,61.76
2019-03-04T16:52:51.666Z,61.83
2019-03-04T16:55:22.686Z,61.74
2019-03-04T16:57:53.888Z,61.04
2019-03-04T17:00:24.895Z,61.22
2019-03-04T17:02:55.990Z,61.22
2019-03-04T17:05:27.669Z,61.20
2019-03-04T17:07:59.120Z,60.60
2019-03-04T17:10:30.215Z,60.60
2019-03-04T17:13:01.255Z,60.66
2019-03-04T17:15:32.251Z,60.90
2019-03-04T17:18:03.246Z,60.54
2019-03-04T17:20:34.257Z,60.42
2019-03-04T17:23:05.636Z,60.04
2019-03-04T17:25:36.633Z,60.32
2019-03-04T17:28:07.580Z,60.32
2019-03-04T17:30:38.578Z,60.55
2019-03-04T17:33:09.550Z,60.47
2019-03-04T17:35:40.484Z,60.66
2019-03-04T17:38:11.600Z,60.88
2019-03-04T17:40:42.897Z,60.88
2019-03-04T17:43:13.921Z,60.90
2019-03-04T17:45:44.962Z,60.67
2019-03-04T17:48:16.038Z,60.63
2019-03-04T17:50:47.823Z,60.44
2019-03-04T17:53:18.741Z,60.77
2019-03-04T17:55:49.713Z,60.15
2019-03-04T17:58:20.731Z,60.34
2019-03-04T18:00:53.704Z,60.38
2019-03-04T18:03:24.697Z,61.07
2019-03-04T18:05:55.756Z,60.79
2019-03-04T18:08:26.913Z,61.22
2019-03-04T18:10:58.045Z,61.22
2019-03-04T18:13:29.145Z,61.55
2019-03-04T18:16:00.101Z,61.60
2019-03-04T18:18:31.073Z,62.04
2019-03-04T18:21:02.010Z,62.08
2019-03-04T18:23:32.990Z,62.19
2019-03-04T18:26:08.626Z,62.49
2019-03-04T18:28:58.056Z,62.42
2019-03-04T18:31:47.225Z,62.56
2019-03-04T18:34:27.353Z,62.74
2019-03-04T18:37:16.605Z,62.85
2019-03-04T18:40:03.171Z,62.97
2019-03-04T18:42:49.071Z,63.42
2019-03-04T18:45:26.340Z,63.50
2019-03-04T18:48:32.480Z,63.45
2019-03-04T18:51:03.526Z,63.76
2019-03-04T18:53:34.537Z,63.99
2019-03-04T18:56:05.601Z,63.82
2019-03-04T18:58:36.781Z,63.98
2019-03-04T19:01:08.652Z,64.12
2019-03-04T19:03:41.276Z,64.29
2019-03-04T19:06:15.151Z,64.16
2019-03-04T19:08:46.214Z,64.35
2019-03-04T19:11:17.178Z,64.40
2019-03-04T19:13:48.404Z,64.67
2019-03-04T19:16:19.645Z,64.91
2019-03-04T19:18:50.819Z,65.24
2019-03-04T19:21:21.958Z,65.48
2019-03-04T19:23:53.201Z,65.62
2019-03-04T19:26:24.385Z,65.78
2019-03-04T19:28:55.433Z,65.49
2019-03-04T19:31:26.478Z,65.74
2019-03-04T19:33:57.613Z,65.66
2019-03-04T19:36:28.817Z,65.88
2019-03-04T19:38:59.792Z,65.87
2019-03-04T19:41:30.885Z,66.09
2019-03-04T19:44:02.213Z,66.12
2019-03-04T19:46:33.273Z,66.17
2019-03-04T19:49:04.352Z,66.29
2019-03-04T19:51:35.454Z,66.09
2019-03-04T19:54:08.141Z,66.14
2019-03-04T19:56:39.099Z,66.05
2019-03-04T19:59:10.045Z,66.44
2019-03-04T20:01:41.314Z,66.57
2019-03-04T20:04:12.373Z,66.69
2019-03-04T20:06:43.576Z,66.92
2019-03-04T20:09:14.689Z,67.04
2019-03-04T20:11:46.073Z,66.91
2019-03-04T20:14:17.495Z,67.27
2019-03-04T20:16:49.696Z,67.17
2019-03-04T20:19:20.860Z,67.43
2019-03-04T20:21:52.109Z,67.65
2019-03-04T20:24:23.275Z,67.76
2019-03-04T20:26:54.438Z,67.75
2019-03-04T20:29:25.524Z,67.86
2019-03-04T20:31:56.532Z,67.77
2019-03-04T20:34:27.515Z,67.76
2019-03-04T20:36:59.718Z,67.87
2019-03-04T20:39:30.797Z,68.09
2019-03-04T20:42:01.937Z,68.26
2019-03-04T20:44:34.008Z,68.35
2019-03-04T20:47:05.080Z,68.51
2019-03-04T20:49:36.295Z,68.54
2019-03-04T20:52:07.338Z,68.54
2019-03-04T20:54:38.407Z,68.73
2019-03-04T20:57:09.552Z,68.85
2019-03-04T20:59:40.759Z,68.81
2019-03-04T21:02:11.960Z,68.94
2019-03-04T21:04:43.538Z,68.94
2019-03-04T21:07:14.719Z,69.05
2019-03-04T21:09:45.837Z,69.20
2019-03-04T21:12:18.388Z,69.40
2019-03-04T21:14:49.655Z,69.58
2019-03-04T21:17:20.609Z,69.74
2019-03-04T21:19:51.649Z,69.92
2019-03-04T21:22:22.585Z,70.11
2019-03-04T21:24:53.580Z,70.37
2019-03-04T21:27:24.694Z,70.48
2019-03-04T21:29:58.912Z,70.76
2019-03-04T21:32:33.116Z,70.84
2019-03-04T21:35:19.745Z,71.19
2019-03-04T21:37:51.113Z,71.37
2019-03-04T21:40:28.377Z,71.31
2019-03-04T21:43:11.356Z,71.64
2019-03-04T21:46:05.606Z,71.84
2019-03-04T21:48:39.906Z,72.01
2019-03-04T21:51:23.132Z,72.23
2019-03-04T21:53:54.263Z,72.51
2019-03-04T21:56:51.190Z,72.66
2019-03-04T21:59:23.132Z,72.77
2019-03-04T22:02:00.201Z,73.03
2019-03-04T22:04:31.373Z,73.13
2019-03-04T22:07:02.302Z,73.20
2019-03-04T22:09:33.376Z,73.43
2019-03-04T22:12:06.244Z,73.61
2019-03-04T22:14:37.380Z,73.86
2019-03-04T22:17:09.334Z,74.04
2019-03-04T22:19:40.289Z,74.23
2019-03-04T22:22:11.274Z,74.35
2019-03-04T22:24:42.595Z,74.47
2019-03-04T22:27:13.660Z,74.52
2019-03-04T22:29:44.709Z,74.59
2019-03-04T22:32:15.655Z,74.53
2019-03-04T22:34:46.685Z,74.62
2019-03-04T22:37:17.736Z,74.67
2019-03-04T22:39:48.772Z,74.78
2019-03-04T22:42:19.709Z,75.05
2019-03-04T22:44:50.655Z,75.14
2019-03-04T22:47:21.707Z,75.41
2019-03-04T22:49:52.805Z,75.60
2019-03-04T22:52:23.764Z,75.78
2019-03-04T22:54:54.685Z,76.00
2019-03-04T22:57:25.648Z,76.21
2019-03-04T22:59:56.597Z,76.34
2019-03-04T23:02:28.023Z,76.54
2019-03-04T23:04:58.974Z,76.72
2019-03-04T23:07:29.926Z,76.92
2019-03-04T23:10:00.908Z,77.13
2019-03-04T23:12:39.248Z,77.18
2019-03-04T23:15:22.497Z,77.32
2019-03-04T23:17:53.514Z,77.63
2019-03-04T23:20:24.482Z,77.72
2019-03-04T23:22:55.411Z,77.84
2019-03-04T23:25:26.317Z,77.94
2019-03-04T23:27:57.254Z,78.10
2019-03-04T23:30:28.353Z,78.23
2019-03-04T23:32:59.227Z,78.36
2019-03-04T23:35:30.266Z,78.64
2019-03-04T23:38:01.262Z,78.72
2019-03-04T23:40:32.334Z,78.81
2019-03-04T23:43:03.197Z,78.94
2019-03-04T23:45:34.217Z,78.99
2019-03-04T23:48:05.452Z,79.09
2019-03-04T23:50:36.415Z,79.28
2019-03-04T23:53:07.410Z,79.46
2019-03-04T23:55:38.398Z,79.50
2019-03-04T23:58:09.388Z,79.49
